Time;durP1;ratioP1;P1;durP2;ratioP2;P2;SDS_P1;SDS_P2;PMS_P1;PMS_P2;Temp;Humidity;BMP_temperature;BMP_pressure;BME280_temperature;BME280_humidity;BME280_pressure;Samples;Min_cycle;Max_cycle;Signal;HPM_P1;HPM_P2
2023/10/26 00:01:32;;;;;;;8.85;3.90;;;9.30;99.90;;;;;;6275453;22;20050;-82
2023/10/26 00:03:59;;;;;;;5.70;2.90;;;9.30;99.90;;;;;;6275325;22;20007;-82
2023/10/26 00:06:25;;;;;;;6.40;3.25;;;9.30;99.90;;;;;;6275714;22;20473;-82
2023/10/26 00:08:50;;;;;;;8.25;3.85;;;9.30;99.90;;;;;;6276813;22;20018;-82
2023/10/26 00:11:16;;;;;;;5.70;3.00;;;9.30;99.90;;;;;;6275764;22;20045;-82
2023/10/26 00:13:42;;;;;;;6.00;2.83;;;9.30;99.90;;;;;;6274248;22;20026;-82
2023/10/26 00:16:08;;;;;;;8.43;4.22;;;9.20;99.90;;;;;;6303390;22;20015;-82
2023/10/26 00:18:34;;;;;;;5.32;3.17;;;9.20;99.90;;;;;;6303416;22;20423;-82
2023/10/26 00:21:00;;;;;;;7.88;3.13;;;9.10;99.90;;;;;;6302377;22;20014;-82
2023/10/26 00:23:27;;;;;;;5.57;3.03;;;9.00;99.90;;;;;;6303383;22;20153;-83
2023/10/26 00:25:53;;;;;;;5.25;3.42;;;9.00;99.90;;;;;;6275698;22;20012;-83
2023/10/26 00:28:19;;;;;;;6.20;3.53;;;8.90;99.90;;;;;;6302117;22;20090;-83
2023/10/26 00:30:45;;;;;;;6.38;3.53;;;8.80;99.90;;;;;;6301693;22;20081;-82
2023/10/26 00:33:11;;;;;;;8.13;3.78;;;8.80;99.90;;;;;;6302978;22;20309;-82
2023/10/26 00:35:37;;;;;;;7.03;3.22;;;8.70;99.90;;;;;;6301880;22;20345;-82
2023/10/26 00:38:02;;;;;;;6.05;2.90;;;8.70;99.90;;;;;;6275356;22;20015;-83
2023/10/26 00:40:28;;;;;;;8.75;3.60;;;8.70;99.90;;;;;;6275711;22;20018;-88
2023/10/26 00:43:01;;;;;;;6.45;3.50;;;8.70;99.90;;;;;;6249206;22;20094;-83
2023/10/26 00:45:34;;;;;;;5.80;3.30;;;8.70;99.90;;;;;;6275192;22;20019;-83
2023/10/26 00:48:00;;;;;;;7.93;3.25;;;8.70;99.90;;;;;;6274731;22;20007;-82
2023/10/26 00:50:26;;;;;;;7.80;3.80;;;8.70;99.90;;;;;;6302598;22;20019;-83
2023/10/26 00:52:53;;;;;;;7.95;4.00;;;8.70;99.90;;;;;;6302509;22;20014;-83
2023/10/26 00:55:19;;;;;;;9.23;4.43;;;8.70;99.90;;;;;;6274704;22;20021;-83
2023/10/26 00:57:46;;;;;;;8.10;3.30;;;8.80;99.90;;;;;;6303276;22;20022;-83
2023/10/26 01:00:12;;;;;;;6.07;2.83;;;8.80;99.90;;;;;;6303030;22;20018;-83
2023/10/26 01:02:38;;;;;;;7.72;3.47;;;8.80;99.90;;;;;;6301771;22;20447;-82
2023/10/26 01:05:04;;;;;;;8.35;3.58;;;8.80;99.90;;;;;;6301541;22;20012;-83
2023/10/26 01:07:30;;;;;;;10.15;3.90;;;8.80;99.90;;;;;;6302670;22;20462;-83
2023/10/26 01:09:57;;;;;;;8.38;3.90;;;8.90;99.90;;;;;;6303812;22;20011;-83
2023/10/26 01:12:25;;;;;;;11.32;4.45;;;8.90;99.90;;;;;;6305016;22;20112;-83
2023/10/26 01:14:52;;;;;;;7.80;3.42;;;9.00;99.90;;;;;;6304008;22;20016;-83
2023/10/26 01:17:18;;;;;;;6.35;3.30;;;9.00;99.90;;;;;;6304337;22;20015;-83
2023/10/26 01:19:47;;;;;;;7.10;3.92;;;9.00;99.90;;;;;;6277024;22;20026;-83
2023/10/26 01:22:13;;;;;;;7.07;3.33;;;9.00;99.90;;;;;;6304770;22;20086;-83
2023/10/26 01:24:39;;;;;;;9.75;3.65;;;9.00;99.90;;;;;;6276964;22;20047;-83
2023/10/26 01:27:05;;;;;;;9.80;4.00;;;9.00;99.90;;;;;;6305998;22;20018;-83
2023/10/26 01:29:31;;;;;;;7.10;3.33;;;9.10;99.90;;;;;;6305373;22;20014;-83
2023/10/26 01:31:57;;;;;;;10.23;4.57;;;9.10;99.90;;;;;;6275478;22;20011;-83
2023/10/26 01:34:23;;;;;;;7.40;3.85;;;9.10;99.90;;;;;;6303211;22;20072;-83
2023/10/26 01:36:49;;;;;;;5.80;3.10;;;9.10;99.90;;;;;;6304035;22;20045;-83
2023/10/26 01:39:16;;;;;;;6.78;3.53;;;9.10;99.90;;;;;;6304807;22;20528;-83
2023/10/26 01:41:42;;;;;;;8.57;3.78;;;9.10;99.90;;;;;;6304900;22;20007;-83
2023/10/26 01:44:08;;;;;;;6.65;3.97;;;9.10;99.90;;;;;;6303579;22;20467;-83
2023/10/26 01:46:34;;;;;;;8.27;4.03;;;9.10;99.90;;;;;;6304437;22;20362;-83
2023/10/26 01:49:01;;;;;;;11.10;4.40;;;9.10;99.90;;;;;;6304258;22;20065;-83
2023/10/26 01:51:27;;;;;;;8.43;4.47;;;9.10;99.90;;;;;;6303288;22;20026;-83
2023/10/26 01:53:53;;;;;;;9.13;4.30;;;9.20;99.90;;;;;;6304292;22;20620;-83
2023/10/26 01:56:18;;;;;;;6.38;4.05;;;9.20;99.90;;;;;;6304303;22;20035;-83
2023/10/26 01:58:45;;;;;;;8.75;4.53;;;9.20;99.90;;;;;;6303639;22;20012;-83
2023/10/26 02:01:11;;;;;;;8.55;3.83;;;9.20;99.90;;;;;;6303740;22;20431;-83
2023/10/26 02:03:37;;;;;;;8.43;4.15;;;9.20;99.90;;;;;;6304057;22;20015;-83
2023/10/26 02:06:03;;;;;;;8.93;4.28;;;9.20;99.90;;;;;;6302931;22;20014;-83
2023/10/26 02:08:29;;;;;;;7.85;4.38;;;9.20;99.90;;;;;;6304438;22;20003;-83
2023/10/26 02:10:54;;;;;;;11.63;5.90;;;9.20;99.90;;;;;;6276954;22;20057;-83
2023/10/26 02:13:20;;;;;;;11.05;4.60;;;9.20;99.90;;;;;;6303213;22;20111;-83
2023/10/26 02:15:46;;;;;;;8.02;4.05;;;9.30;99.90;;;;;;6303665;22;20045;-83
2023/10/26 02:18:11;;;;;;;9.98;3.92;;;9.30;99.90;;;;;;6304203;22;20124;-83
2023/10/26 02:20:37;;;;;;;9.45;5.15;;;9.30;99.90;;;;;;6303354;22;20355;-83
2023/10/26 02:23:04;;;;;;;9.25;5.10;;;9.30;99.90;;;;;;6304165;22;20062;-83
2023/10/26 02:25:30;;;;;;;11.02;5.47;;;9.30;99.90;;;;;;6276528;22;20462;-83
2023/10/26 02:27:57;;;;;;;12.25;4.22;;;9.30;99.90;;;;;;6275287;22;20090;-83
2023/10/26 02:30:23;;;;;;;8.98;4.05;;;9.30;99.90;;;;;;6276283;22;20432;-83
2023/10/26 02:32:49;;;;;;;10.43;4.95;;;9.20;99.90;;;;;;6275276;22;20011;-83
2023/10/26 02:35:16;;;;;;;9.43;4.65;;;9.20;99.90;;;;;;6275290;22;20090;-83
2023/10/26 02:37:42;;;;;;;13.40;4.63;;;9.30;99.90;;;;;;6249453;22;20202;-83
2023/10/26 02:40:08;;;;;;;11.35;4.68;;;9.30;99.90;;;;;;6275480;22;20717;-83
2023/10/26 02:42:35;;;;;;;12.20;5.75;;;9.30;99.90;;;;;;6251078;22;20101;-83
2023/10/26 02:45:03;;;;;;;9.95;4.82;;;9.30;99.90;;;;;;6277186;22;20020;-83
2023/10/26 02:47:29;;;;;;;9.40;4.70;;;9.30;99.90;;;;;;6304493;22;20327;-83
2023/10/26 02:49:55;;;;;;;10.48;5.03;;;9.20;99.90;;;;;;6275913;22;20459;-83
2023/10/26 02:52:21;;;;;;;9.45;4.57;;;9.20;99.90;;;;;;6275988;22;20011;-83
2023/10/26 02:54:46;;;;;;;12.65;5.78;;;9.20;99.90;;;;;;6302797;22;20094;-83
2023/10/26 02:57:14;;;;;;;11.13;5.47;;;9.20;99.90;;;;;;6276320;22;20019;-83
2023/10/26 02:59:40;;;;;;;9.40;4.35;;;9.20;99.90;;;;;;6276166;22;20375;-83
2023/10/26 03:02:06;;;;;;;14.25;5.47;;;9.20;99.90;;;;;;6302812;22;20439;-83
2023/10/26 03:04:34;;;;;;;14.20;6.78;;;9.20;99.90;;;;;;6304023;22;20026;-83
2023/10/26 03:07:03;;;;;;;9.40;5.15;;;9.20;99.90;;;;;;6303818;22;20056;-83
2023/10/26 03:09:29;;;;;;;8.55;4.30;;;9.20;99.90;;;;;;6303023;22;20019;-83
2023/10/26 03:11:55;;;;;;;9.95;4.78;;;9.10;99.90;;;;;;6303609;22;20313;-83
2023/10/26 03:14:21;;;;;;;10.38;5.47;;;9.10;99.90;;;;;;6302877;22;20015;-83
2023/10/26 03:16:48;;;;;;;9.20;4.20;;;9.10;99.90;;;;;;6302317;22;20482;-83
2023/10/26 03:19:13;;;;;;;9.15;4.60;;;9.10;99.90;;;;;;6303651;22;20007;-83
2023/10/26 03:21:39;;;;;;;16.40;5.68;;;9.10;99.90;;;;;;6303587;22;20038;-83
2023/10/26 03:24:06;;;;;;;12.88;5.55;;;9.10;99.90;;;;;;6302463;22;20019;-83
2023/10/26 03:26:31;;;;;;;11.82;4.90;;;9.00;99.90;;;;;;6303525;22;20642;-83
2023/10/26 03:28:57;;;;;;;9.70;5.18;;;9.00;99.90;;;;;;6302334;22;20011;-83
2023/10/26 03:31:23;;;;;;;8.57;3.80;;;9.10;99.90;;;;;;6303303;22;20442;-83
2023/10/26 03:33:49;;;;;;;11.77;5.45;;;9.00;99.90;;;;;;6303136;22;20011;-83
2023/10/26 03:36:16;;;;;;;10.65;5.10;;;9.00;99.90;;;;;;6275155;22;20699;-83
2023/10/26 03:38:43;;;;;;;8.70;4.78;;;9.00;99.90;;;;;;6301673;22;20012;-83
2023/10/26 03:41:09;;;;;;;9.55;4.53;;;8.90;99.90;;;;;;6302867;22;20433;-83
2023/10/26 03:43:34;;;;;;;9.95;4.93;;;8.90;99.90;;;;;;6302790;22;20015;-83
2023/10/26 03:46:00;;;;;;;11.23;4.70;;;8.90;99.90;;;;;;6275889;22;20500;-83
2023/10/26 03:48:26;;;;;;;8.90;4.80;;;8.90;99.90;;;;;;6302553;22;20015;-83
2023/10/26 03:50:52;;;;;;;8.48;3.88;;;8.90;99.90;;;;;;6274932;22;20018;-83
2023/10/26 03:53:18;;;;;;;8.80;4.38;;;8.80;99.90;;;;;;6303170;22;20022;-83
2023/10/26 03:55:43;;;;;;;11.18;5.18;;;8.90;99.90;;;;;;6303221;22;20060;-83
2023/10/26 03:58:12;;;;;;;12.52;5.38;;;8.90;99.90;;;;;;6302644;22;20344;-83
2023/10/26 04:00:38;;;;;;;9.55;4.53;;;8.80;99.90;;;;;;6302909;22;20018;-83
2023/10/26 04:03:03;;;;;;;11.75;6.15;;;8.80;99.90;;;;;;6303736;22;20042;-83
2023/10/26 04:05:29;;;;;;;11.13;5.43;;;8.90;99.90;;;;;;6276072;22;20086;-83
2023/10/26 04:07:56;;;;;;;9.25;4.82;;;8.80;99.90;;;;;;6276580;22;20018;-83
2023/10/26 04:10:22;;;;;;;19.88;5.60;;;8.80;99.90;;;;;;6303322;22;20086;-83
2023/10/26 04:12:48;;;;;;;9.63;4.80;;;8.90;99.90;;;;;;6302346;22;20164;-83
2023/10/26 04:15:14;;;;;;;8.43;4.38;;;8.80;99.90;;;;;;6303231;22;20460;-83
2023/10/26 04:17:39;;;;;;;17.63;4.90;;;8.70;99.90;;;;;;6302743;22;20479;-83
2023/10/26 04:20:07;;;;;;;9.13;4.20;;;8.80;99.90;;;;;;6301753;22;20022;-83
2023/10/26 04:22:33;;;;;;;9.13;4.50;;;8.80;99.90;;;;;;6303243;22;20022;-83
2023/10/26 04:24:59;;;;;;;11.77;4.57;;;8.80;99.90;;;;;;6302454;22;20011;-83
2023/10/26 04:27:25;;;;;;;10.45;4.07;;;8.80;99.90;;;;;;6303664;22;20015;-83
2023/10/26 04:29:51;;;;;;;11.60;3.92;;;8.80;99.90;;;;;;6303186;22;20380;-83
2023/10/26 04:32:17;;;;;;;14.35;4.75;;;8.70;99.90;;;;;;6301835;22;20011;-83
2023/10/26 04:34:45;;;;;;;16.38;4.70;;;8.70;99.90;;;;;;6275425;22;20019;-83
2023/10/26 04:37:11;;;;;;;10.32;5.30;;;8.70;99.90;;;;;;6275247;22;20095;-83
2023/10/26 04:39:37;;;;;;;14.82;4.30;;;8.70;99.90;;;;;;6249122;22;20054;-83
2023/10/26 04:42:04;;;;;;;12.80;5.07;;;8.70;99.90;;;;;;6274274;22;20050;-83
2023/10/26 04:44:30;;;;;;;10.68;4.15;;;8.70;99.90;;;;;;6303767;22;20083;-83
2023/10/26 04:46:56;;;;;;;14.75;4.70;;;8.70;99.90;;;;;;6310941;22;20015;-84
2023/10/26 04:49:22;;;;;;;7.65;4.10;;;8.70;99.90;;;;;;6277228;22;20068;-83
2023/10/26 04:51:47;;;;;;;8.38;4.78;;;8.60;99.90;;;;;;6305110;22;20331;-83
2023/10/26 04:54:13;;;;;;;7.55;4.13;;;8.60;99.90;;;;;;6310892;22;20022;-83
2023/10/26 04:56:39;;;;;;;6.90;3.72;;;8.60;99.90;;;;;;6278463;22;20022;-83
2023/10/26 04:59:04;;;;;;;7.00;3.88;;;8.60;99.90;;;;;;6305607;22;20030;-83
2023/10/26 05:01:31;;;;;;;6.05;3.45;;;8.60;99.90;;;;;;6304053;22;20348;-83
2023/10/26 05:03:57;;;;;;;9.38;4.50;;;8.50;99.90;;;;;;6277468;22;20072;-83
2023/10/26 05:06:22;;;;;;;6.45;4.35;;;8.50;99.90;;;;;;6277548;22;20499;-83
2023/10/26 05:08:48;;;;;;;7.55;4.30;;;8.40;99.90;;;;;;6277086;22;20500;-82
2023/10/26 05:11:16;;;;;;;7.70;4.30;;;8.40;99.90;;;;;;6305048;22;20429;-83
2023/10/26 05:13:42;;;;;;;8.15;4.15;;;8.40;99.90;;;;;;6277139;22;20091;-82
2023/10/26 05:16:07;;;;;;;9.07;4.22;;;8.30;99.90;;;;;;6304664;22;20046;-83
2023/10/26 05:18:33;;;;;;;8.02;4.35;;;8.30;99.90;;;;;;6277426;22;20217;-83
2023/10/26 05:20:59;;;;;;;7.43;4.03;;;8.30;99.90;;;;;;6304329;22;20098;-83
2023/10/26 05:23:26;;;;;;;10.65;4.70;;;8.30;99.90;;;;;;6278082;22;20023;-83
2023/10/26 05:25:51;;;;;;;6.90;3.88;;;8.30;99.90;;;;;;6278244;22;20443;-82
2023/10/26 05:28:17;;;;;;;9.65;3.90;;;8.30;99.90;;;;;;6275990;22;20018;-83
2023/10/26 05:30:43;;;;;;;9.07;3.35;;;8.30;99.90;;;;;;6276915;22;20015;-82
2023/10/26 05:33:09;;;;;;;7.32;3.30;;;8.30;99.90;;;;;;6304299;22;20007;-82
2023/10/26 05:35:35;;;;;;;9.63;4.53;;;8.30;99.90;;;;;;6276324;22;20026;-82
2023/10/26 05:38:01;;;;;;;8.63;4.38;;;8.30;99.90;;;;;;6276621;22;20407;-82
2023/10/26 05:40:27;;;;;;;7.95;4.80;;;8.20;99.90;;;;;;6277179;22;20034;-82
2023/10/26 05:42:52;;;;;;;12.32;3.67;;;8.30;99.90;;;;;;6303924;22;20011;-82
2023/10/26 05:45:18;;;;;;;10.02;4.22;;;8.30;99.90;;;;;;6275287;22;20015;-82
2023/10/26 05:47:44;;;;;;;12.35;4.45;;;8.30;99.90;;;;;;6304149;22;20083;-82
2023/10/26 05:50:10;;;;;;;7.90;4.07;;;8.30;99.90;;;;;;6250298;22;20030;-82
2023/10/26 05:52:36;;;;;;;11.32;4.32;;;8.30;99.90;;;;;;6276599;22;20022;-82
2023/10/26 05:55:02;;;;;;;7.05;3.85;;;8.30;99.90;;;;;;6303855;22;20015;-82
2023/10/26 05:57:28;;;;;;;8.55;4.22;;;8.20;99.90;;;;;;6303693;22;20043;-82
2023/10/26 05:59:54;;;;;;;7.03;3.83;;;8.20;99.90;;;;;;6276765;22;20038;-82
2023/10/26 06:02:23;;;;;;;9.63;4.95;;;8.20;99.90;;;;;;6304739;22;20060;-82
2023/10/26 06:04:49;;;;;;;13.15;4.22;;;8.20;99.90;;;;;;6303620;22;20019;-82
2023/10/26 06:07:15;;;;;;;9.55;4.88;;;8.20;99.90;;;;;;6304505;22;20082;-82
2023/10/26 06:09:40;;;;;;;9.43;4.47;;;8.20;99.90;;;;;;6303742;22;20442;-82
2023/10/26 06:12:07;;;;;;;8.15;4.45;;;8.20;99.90;;;;;;6303277;22;20041;-82
2023/10/26 06:14:33;;;;;;;14.10;4.70;;;8.20;99.90;;;;;;6303912;22;20019;-82
2023/10/26 06:16:58;;;;;;;7.88;4.43;;;8.20;99.90;;;;;;6303517;22;20049;-82
2023/10/26 06:19:24;;;;;;;8.55;4.75;;;8.20;99.90;;;;;;6303601;22;20013;-82
2023/10/26 06:21:50;;;;;;;11.55;4.85;;;8.10;99.90;;;;;;6304160;22;20011;-82
2023/10/26 06:24:16;;;;;;;11.75;5.07;;;8.20;99.90;;;;;;6302956;22;20483;-82
2023/10/26 06:26:41;;;;;;;8.88;4.47;;;8.10;99.90;;;;;;6303871;22;20328;-83
2023/10/26 06:29:07;;;;;;;12.32;5.15;;;8.10;99.90;;;;;;6276911;22;20015;-83
2023/10/26 06:31:33;;;;;;;10.90;5.53;;;8.10;99.90;;;;;;6275615;22;20015;-82
2023/10/26 06:33:59;;;;;;;11.07;4.57;;;8.10;99.90;;;;;;6276069;22;20025;-82
2023/10/26 06:36:24;;;;;;;8.80;4.15;;;8.00;99.90;;;;;;6304206;22;20022;-82
2023/10/26 06:38:54;;;;;;;8.80;4.40;;;8.00;99.90;;;;;;6302823;22;20015;-82
2023/10/26 06:41:19;;;;;;;11.60;5.03;;;8.10;99.90;;;;;;6304423;22;20011;-82
2023/10/26 06:43:45;;;;;;;11.93;4.45;;;8.10;99.90;;;;;;6305206;22;20578;-82
2023/10/26 06:46:11;;;;;;;9.05;4.50;;;8.10;99.90;;;;;;6303583;22;20335;-82
2023/10/26 06:48:37;;;;;;;8.00;4.07;;;8.10;99.90;;;;;;6302176;22;20015;-82
2023/10/26 06:51:04;;;;;;;21.63;5.55;;;8.10;99.90;;;;;;6303859;22;20042;-82
2023/10/26 06:53:29;;;;;;;10.90;5.38;;;8.10;99.90;;;;;;6302870;22;20053;-82
2023/10/26 06:55:56;;;;;;;9.45;3.70;;;8.10;99.90;;;;;;6304012;22;20007;-82
2023/10/26 06:58:22;;;;;;;12.50;5.85;;;8.10;99.90;;;;;;6304041;22;20107;-82
2023/10/26 07:00:48;;;;;;;9.93;4.57;;;8.10;99.90;;;;;;6302925;22;20433;-83
2023/10/26 07:03:14;;;;;;;10.85;5.38;;;8.10;99.90;;;;;;6303774;22;20319;-83
2023/10/26 07:05:40;;;;;;;13.40;5.38;;;8.10;99.90;;;;;;6303254;22;20094;-83
2023/10/26 07:08:06;;;;;;;9.55;5.00;;;8.20;99.90;;;;;;6302426;22;20015;-82
2023/10/26 07:10:32;;;;;;;13.05;5.10;;;8.10;99.90;;;;;;6303410;22;20007;-83
2023/10/26 07:12:58;;;;;;;11.90;6.13;;;8.20;99.90;;;;;;6302930;22;20018;-83
2023/10/26 07:15:23;;;;;;;11.27;5.30;;;8.20;99.90;;;;;;6305793;22;20030;-82
2023/10/26 07:17:49;;;;;;;13.88;5.97;;;8.30;99.90;;;;;;6308172;22;20019;-82
2023/10/26 07:20:15;;;;;;;11.95;5.53;;;8.30;99.90;;;;;;6302960;22;20007;-83
2023/10/26 07:22:45;;;;;;;10.07;5.13;;;8.30;99.90;;;;;;6303524;22;20042;-83
2023/10/26 07:25:10;;;;;;;15.85;5.93;;;8.40;99.90;;;;;;6303682;22;20015;-81
2023/10/26 07:27:37;;;;;;;17.75;5.03;;;8.50;99.90;;;;;;6302517;22;20031;-82
2023/10/26 07:30:03;;;;;;;16.45;5.13;;;8.50;99.90;;;;;;6302710;22;20553;-82
2023/10/26 07:32:29;;;;;;;13.18;5.07;;;8.60;99.90;;;;;;6302897;22;20014;-83
2023/10/26 07:34:55;;;;;;;9.43;4.68;;;8.70;99.90;;;;;;6308273;22;20015;-82
2023/10/26 07:37:21;;;;;;;14.10;5.70;;;8.60;99.90;;;;;;6303634;22;20011;-82
2023/10/26 07:39:47;;;;;;;18.42;5.15;;;8.70;99.90;;;;;;6303404;22;20011;-82
2023/10/26 07:42:13;;;;;;;17.25;5.35;;;8.60;99.90;;;;;;6302915;22;20391;-81
2023/10/26 07:44:39;;;;;;;10.05;5.20;;;8.70;99.90;;;;;;6303328;22;20012;-82
2023/10/26 07:47:08;;;;;;;9.60;4.50;;;8.70;99.90;;;;;;6303333;22;20003;-82
2023/10/26 07:49:34;;;;;;;14.52;5.18;;;8.70;99.90;;;;;;6301150;22;20030;-82
2023/10/26 07:51:59;;;;;;;9.10;4.70;;;8.70;99.90;;;;;;6301000;22;20011;-82
2023/10/26 07:54:25;;;;;;;9.75;4.82;;;8.70;99.90;;;;;;6301648;22;20011;-82
2023/10/26 07:56:52;;;;;;;13.98;5.82;;;8.70;99.90;;;;;;6301284;22;20027;-82
2023/10/26 07:59:18;;;;;;;20.50;5.70;;;8.80;99.90;;;;;;6302424;22;20011;-82
2023/10/26 08:01:44;;;;;;;12.60;4.60;;;8.80;99.90;;;;;;6275936;22;20015;-82
2023/10/26 08:04:10;;;;;;;10.93;4.82;;;8.80;99.90;;;;;;6275208;22;20016;-82
2023/10/26 08:06:35;;;;;;;15.73;5.63;;;8.90;99.90;;;;;;6275182;22;20148;-85
2023/10/26 08:09:01;;;;;;;18.15;6.43;;;8.90;99.90;;;;;;6274087;22;20051;-82
2023/10/26 08:11:27;;;;;;;10.98;5.35;;;8.90;99.90;;;;;;6302621;22;20090;-82
2023/10/26 08:13:53;;;;;;;12.20;5.63;;;8.90;99.90;;;;;;6302701;22;20401;-82
2023/10/26 08:16:19;;;;;;;10.98;6.05;;;8.90;99.90;;;;;;6301224;22;20494;-83
2023/10/26 08:18:44;;;;;;;9.20;4.43;;;8.90;99.90;;;;;;6302234;22;20016;-82
2023/10/26 08:21:10;;;;;;;10.10;5.47;;;8.90;99.90;;;;;;6302534;22;20015;-83
2023/10/26 08:23:36;;;;;;;18.58;5.43;;;8.90;99.90;;;;;;6301755;22;20316;-82
2023/10/26 08:26:09;;;;;;;15.35;5.65;;;9.00;99.90;;;;;;6301920;22;20102;-82
2023/10/26 08:28:38;;;;;;;13.45;5.32;;;9.00;99.90;;;;;;6302483;22;20082;-83
2023/10/26 08:31:06;;;;;;;13.95;5.32;;;9.00;99.90;;;;;;6301193;22;20007;-82
2023/10/26 08:33:35;;;;;;;12.10;5.72;;;9.20;99.90;;;;;;6302458;22;20061;-83
2023/10/26 08:36:03;;;;;;;13.05;5.88;;;9.20;99.90;;;;;;6302748;22;20011;-87
2023/10/26 08:38:29;;;;;;;13.63;5.80;;;9.30;99.90;;;;;;6274076;22;20048;-82
2023/10/26 08:40:55;;;;;;;13.13;5.57;;;9.30;99.90;;;;;;6302225;22;20007;-82
2023/10/26 08:43:23;;;;;;;14.45;5.32;;;9.40;99.90;;;;;;6301971;22;20043;-82
2023/10/26 08:45:51;;;;;;;13.07;6.05;;;9.40;99.90;;;;;;6301517;22;20103;-81
2023/10/26 08:48:21;;;;;;;15.18;5.90;;;9.40;99.90;;;;;;6301932;22;20547;-82
2023/10/26 08:50:47;;;;;;;;;;;9.40;99.90;;;;;;6301530;22;20034;-82
2023/10/26 08:53:14;;;;;;;11.45;5.43;;;9.40;99.90;;;;;;6301069;22;19917;-82
2023/10/26 08:55:41;;;;;;;13.93;5.70;;;9.50;99.90;;;;;;6301544;22;20015;-82
2023/10/26 08:58:08;;;;;;;14.07;6.70;;;9.50;99.90;;;;;;6274034;22;20122;-82
2023/10/26 09:00:36;;;;;;;13.75;5.95;;;9.50;99.90;;;;;;6274716;22;20019;-82
2023/10/26 09:03:02;;;;;;;14.63;6.50;;;9.60;99.90;;;;;;6274654;22;20015;-82
2023/10/26 09:05:28;;;;;;;15.65;6.93;;;9.70;99.90;;;;;;6273645;22;20189;-81
2023/10/26 09:07:54;;;;;;;11.32;5.82;;;9.70;99.90;;;;;;6302210;22;20017;-82
2023/10/26 09:10:31;;;;;;;13.45;6.25;;;9.70;99.90;;;;;;6274551;22;20352;-81
2023/10/26 09:13:02;;;;;;;19.35;7.35;;;9.80;99.90;;;;;;6300664;22;20332;-82
2023/10/26 09:15:28;;;;;;;19.17;8.02;;;9.90;99.90;;;;;;6274276;22;20030;-82
2023/10/26 09:18:00;;;;;;;25.10;9.48;;;9.90;99.90;;;;;;6301668;22;20023;-82
2023/10/26 09:20:26;;;;;;;20.08;8.48;;;10.00;99.90;;;;;;6274624;22;20451;-81
2023/10/26 09:22:52;;;;;;;19.80;8.13;;;10.00;99.90;;;;;;6303317;22;20370;-82
2023/10/26 09:25:18;;;;;;;15.30;8.40;;;10.10;99.90;;;;;;6302188;22;20098;-82
2023/10/26 09:27:45;;;;;;;18.95;7.50;;;10.20;99.90;;;;;;6273771;22;20018;-82
2023/10/26 09:30:32;;;;;;;16.08;7.00;;;10.20;99.90;;;;;;6302028;22;20091;-82
2023/10/26 09:32:59;;;;;;;17.45;8.80;;;10.20;99.90;;;;;;6302511;22;20015;-82
2023/10/26 09:35:34;;;;;;;19.45;7.90;;;10.20;99.90;;;;;;6303807;22;20015;-82
2023/10/26 09:38:00;;;;;;;17.80;8.50;;;10.30;99.90;;;;;;6303799;22;20011;-82
2023/10/26 09:40:26;;;;;;;16.45;7.90;;;10.30;99.90;;;;;;6275424;22;20479;-82
2023/10/26 09:42:56;;;;;;;13.45;7.43;;;10.40;99.90;;;;;;6276461;22;20347;-82
2023/10/26 09:45:22;;;;;;;14.60;6.82;;;10.40;99.90;;;;;;6275989;22;20090;-82
2023/10/26 09:47:48;;;;;;;16.67;7.60;;;10.50;99.90;;;;;;6303035;22;20069;-82
2023/10/26 09:50:14;;;;;;;17.25;7.63;;;10.50;99.90;;;;;;6303382;22;20023;-82
2023/10/26 09:52:44;;;;;;;17.70;6.63;;;10.60;99.90;;;;;;6303721;22;20003;-82
2023/10/26 09:55:11;;;;;;;12.60;6.13;;;10.60;99.90;;;;;;6302603;22;20109;-82
2023/10/26 09:57:59;;;;;;;14.73;6.55;;;10.60;99.90;;;;;;6302478;22;20064;-82
2023/10/26 10:00:31;;;;;;;16.55;6.78;;;10.70;99.90;;;;;;6303400;22;20517;-82
2023/10/26 10:03:10;;;;;;;11.73;6.20;;;10.70;99.90;;;;;;6302444;22;20015;-82
2023/10/26 10:05:44;;;;;;;16.70;7.68;;;10.80;99.90;;;;;;6303252;22;20568;-82
2023/10/26 10:08:10;;;;;;;14.15;6.28;;;10.80;99.90;;;;;;6302472;22;20145;-82
2023/10/26 10:10:37;;;;;;;14.55;6.68;;;10.80;99.90;;;;;;6303186;22;20018;-82
2023/10/26 10:13:02;;;;;;;13.32;6.47;;;10.90;99.90;;;;;;6303854;22;20011;-82
2023/10/26 10:15:42;;;;;;;12.40;6.78;;;10.90;99.90;;;;;;6302634;22;20037;-82
2023/10/26 10:18:08;;;;;;;;;;;10.90;99.90;;;;;;6303928;22;20019;-82
2023/10/26 10:20:36;;;;;;;16.20;6.18;;;10.90;99.90;;;;;;6302939;22;19911;-82
2023/10/26 10:23:03;;;;;;;13.80;7.03;;;10.90;99.90;;;;;;6274901;22;20046;-82
2023/10/26 10:25:49;;;;;;;13.38;6.10;;;11.00;99.90;;;;;;6303250;22;20022;-82
2023/10/26 10:28:16;;;;;;;13.63;6.50;;;11.10;99.90;;;;;;6303142;22;20452;-82
2023/10/26 10:30:56;;;;;;;14.10;6.68;;;11.10;99.90;;;;;;6302943;22;20007;-82
2023/10/26 10:33:26;;;;;;;13.48;7.38;;;11.10;99.90;;;;;;6303192;22;20016;-82
2023/10/26 10:36:03;;;;;;;11.25;5.43;;;11.00;99.90;;;;;;6302476;22;20069;-82
2023/10/26 10:38:30;;;;;;;16.88;6.28;;;11.00;99.90;;;;;;6275781;22;20447;-82
2023/10/26 10:40:59;;;;;;;15.45;7.03;;;11.00;99.90;;;;;;6303788;22;20034;-82
2023/10/26 10:43:45;;;;;;;16.48;7.22;;;11.10;99.90;;;;;;6303766;22;20086;-82
2023/10/26 10:46:20;;;;;;;14.57;6.68;;;11.10;99.90;;;;;;6303454;22;20307;-82
2023/10/26 10:49:06;;;;;;;13.20;6.32;;;11.20;99.90;;;;;;6275212;22;20026;-82
2023/10/26 10:51:37;;;;;;;13.40;6.25;;;11.30;99.90;;;;;;6275199;22;20365;-82
2023/10/26 10:54:25;;;;;;;13.80;6.25;;;11.40;99.90;;;;;;6302958;22;20050;-82
2023/10/26 10:56:51;;;;;;;13.70;5.88;;;11.40;99.90;;;;;;6302716;22;20011;-82
2023/10/26 10:59:23;;;;;;;12.40;5.63;;;11.50;99.90;;;;;;6301769;22;20021;-82
2023/10/26 11:02:05;;;;;;;14.18;6.75;;;11.50;99.90;;;;;;6274692;22;20098;-82
2023/10/26 11:04:30;;;;;;;12.75;5.25;;;11.60;99.90;;;;;;6302228;22;20018;-82
2023/10/26 11:06:56;;;;;;;13.60;6.50;;;11.70;99.90;;;;;;6302621;22;20011;-82
2023/10/26 11:09:29;;;;;;;13.38;6.57;;;11.70;99.90;;;;;;6302629;22;20018;-82
2023/10/26 11:11:55;;;;;;;11.45;5.80;;;11.80;99.90;;;;;;6301936;22;20073;-82
2023/10/26 11:14:22;;;;;;;11.73;5.85;;;11.90;99.90;;;;;;6303228;22;20011;-82
2023/10/26 11:16:51;;;;;;;11.25;6.45;;;12.00;99.90;;;;;;6303048;22;20087;-82
2023/10/26 11:19:17;;;;;;;14.70;6.18;;;12.10;99.90;;;;;;6301662;22;20015;-82
2023/10/26 11:21:43;;;;;;;12.80;6.82;;;12.30;99.90;;;;;;6302660;22;20011;-82
2023/10/26 11:24:10;;;;;;;13.13;6.75;;;12.40;99.90;;;;;;6302869;22;20016;-82
2023/10/26 11:26:38;;;;;;;13.75;5.50;;;12.90;99.90;;;;;;6274201;22;20023;-82
2023/10/26 11:29:05;;;;;;;9.25;5.90;;;13.10;99.90;;;;;;6302901;22;20316;-82
2023/10/26 11:31:39;;;;;;;11.68;5.70;;;13.00;99.90;;;;;;6302406;22;20483;-82
2023/10/26 11:34:10;;;;;;;12.27;6.07;;;12.80;99.90;;;;;;6274241;22;20026;-82
2023/10/26 11:36:37;;;;;;;9.00;5.65;;;12.70;99.90;;;;;;6302774;22;20021;-82
2023/10/26 11:39:03;;;;;;;14.38;6.15;;;12.70;99.90;;;;;;6301934;22;20254;-82
2023/10/26 11:41:29;;;;;;;9.95;5.93;;;12.70;99.90;;;;;;6302656;22;20072;-82
2023/10/26 11:43:58;;;;;;;12.65;6.20;;;12.70;99.90;;;;;;6302894;22;20011;-82
2023/10/26 11:46:34;;;;;;;12.40;6.43;;;12.60;99.90;;;;;;6301757;22;20018;-82
2023/10/26 11:49:02;;;;;;;14.98;5.95;;;12.50;99.90;;;;;;6302272;22;20053;-82
2023/10/26 11:51:29;;;;;;;11.80;6.35;;;12.50;99.90;;;;;;6302781;22;20049;-82
2023/10/26 11:53:56;;;;;;;14.98;7.38;;;12.80;99.90;;;;;;6301545;22;20019;-82
2023/10/26 11:56:22;;;;;;;16.67;6.82;;;13.40;99.90;;;;;;6275076;22;20255;-82
2023/10/26 11:58:47;;;;;;;11.20;6.50;;;13.90;99.90;;;;;;6275743;22;20015;-82
2023/10/26 12:01:13;;;;;;;12.43;6.72;;;14.20;99.90;;;;;;6302547;22;20083;-82
2023/10/26 12:03:43;;;;;;;13.38;7.22;;;14.30;99.90;;;;;;6301458;22;20021;-82
2023/10/26 12:06:11;;;;;;;10.85;6.22;;;14.00;99.90;;;;;;6302517;22;20085;-82
2023/10/26 12:08:37;;;;;;;11.52;6.15;;;13.80;99.90;;;;;;6301637;22;20018;-82
2023/10/26 12:11:04;;;;;;;11.35;6.18;;;13.70;99.90;;;;;;6301878;22;20513;-82
2023/10/26 12:13:33;;;;;;;12.57;6.57;;;13.80;99.90;;;;;;6302472;22;20007;-82
2023/10/26 12:15:59;;;;;;;11.77;6.15;;;13.80;99.90;;;;;;6301647;22;20516;-82
2023/10/26 12:18:25;;;;;;;13.38;6.32;;;13.80;99.90;;;;;;6302301;22;20017;-82
2023/10/26 12:20:50;;;;;;;10.88;5.43;;;13.80;99.90;;;;;;6301386;22;20014;-82
2023/10/26 12:23:16;;;;;;;12.10;5.63;;;13.90;99.90;;;;;;6302396;22;20011;-82
2023/10/26 12:25:42;;;;;;;11.50;5.82;;;13.90;99.90;;;;;;6274781;22;20093;-82
2023/10/26 12:28:07;;;;;;;11.45;5.28;;;14.00;99.90;;;;;;6301135;22;20016;-82
2023/10/26 12:30:34;;;;;;;11.48;5.88;;;14.30;99.90;;;;;;6301906;22;20133;-82
2023/10/26 12:32:59;;;;;;;11.13;5.75;;;14.40;99.90;;;;;;6301851;22;20014;-82
2023/10/26 12:35:25;;;;;;;12.80;5.63;;;14.50;99.90;;;;;;6301184;22;20016;-82
2023/10/26 12:37:51;;;;;;;11.27;5.68;;;14.60;99.90;;;;;;6302375;22;20007;-82
2023/10/26 12:40:18;;;;;;;8.90;4.80;;;14.30;99.90;;;;;;6302003;22;20458;-82
2023/10/26 12:42:46;;;;;;;7.95;4.65;;;14.20;99.90;;;;;;6301194;22;20491;-82
2023/10/26 12:45:14;;;;;;;10.05;5.45;;;14.10;99.90;;;;;;6302237;22;20011;-82
2023/10/26 12:47:39;;;;;;;9.30;4.57;;;13.80;99.90;;;;;;6302769;22;20305;-82